ANS531 SANE-SAEZ
Flight info
| Callsign | ANS531 |
|---|---|
| Flight time | 1h 25m |
| Altitude | 39000 |
| Route | DIKOR2G DIKOR UL550 ROS UT672 MULTA UW24 SNT |
| Aircraft | B737/M-SDE1FGIRWYZ/SB1 |
Departure
| Time | 2026-04-29 00:55 |
|---|---|
| Airport | Vicecomodoro Angel D. La Paz Aragonés Airport (SANE) |
Arrival
| Time | 2026-04-29 02:20 |
|---|---|
| Airport | Ezeiza International Airport - Ministro Pistarini (SAEZ) |
| Time | Latitude | Longitude | Altitude | Speed | Heading |
|---|---|---|---|---|---|
| 2026-04-29 00:33 | -27.75611 | -64.29949 | 663 ft | 0 kts | 143° |
| 2026-04-29 00:52 | -27.75617 | -64.29944 | 662 ft | 2 kts | 150° |
| 2026-04-29 00:53 | -27.75632 | -64.29957 | 663 ft | 4 kts | 245° |
| 2026-04-29 00:53 | -27.75615 | -64.30009 | 663 ft | 11 kts | 295° |
| 2026-04-29 00:53 | -27.75573 | -64.30113 | 663 ft | 18 kts | 293° |
| 2026-04-29 00:53 | -27.75523 | -64.30250 | 666 ft | 19 kts | 291° |
| 2026-04-29 00:54 | -27.75497 | -64.30325 | 669 ft | 17 kts | 283° |
| 2026-04-29 00:54 | -27.75611 | -64.30431 | 670 ft | 54 kts | 207° |
| 2026-04-29 00:54 | -27.76213 | -64.30786 | 666 ft | 137 kts | 207° |
| 2026-04-29 00:54 | -27.77184 | -64.31342 | 1190 ft | 156 kts | 207° |
| 2026-04-29 00:55 | -27.78134 | -64.31898 | 2168 ft | 159 kts | 211° |
| 2026-04-29 00:55 | -27.79148 | -64.32511 | 2842 ft | 180 kts | 211° |
| 2026-04-29 00:55 | -27.80371 | -64.33248 | 3255 ft | 220 kts | 210° |
| 2026-04-29 00:55 | -27.81832 | -64.34122 | 3561 ft | 255 kts | 209° |
| 2026-04-29 00:56 | -27.83621 | -64.34694 | 4121 ft | 278 kts | 180° |
| 2026-04-29 00:56 | -27.85523 | -64.34269 | 5260 ft | 280 kts | 160° |
| 2026-04-29 00:56 | -27.87343 | -64.33492 | 6560 ft | 279 kts | 159° |
| 2026-04-29 00:56 | -27.89153 | -64.32661 | 7655 ft | 282 kts | 159° |
| 2026-04-29 00:57 | -27.90972 | -64.31817 | 8774 ft | 284 kts | 160° |
| 2026-04-29 00:57 | -27.92816 | -64.30968 | 9872 ft | 288 kts | 161° |
| 2026-04-29 00:57 | -27.94698 | -64.30110 | 10705 ft | 300 kts | 161° |
| 2026-04-29 00:57 | -27.96730 | -64.29194 | 10983 ft | 330 kts | 161° |
| 2026-04-29 00:58 | -27.98924 | -64.28208 | 11582 ft | 344 kts | 161° |
| 2026-04-29 00:58 | -28.01160 | -64.27202 | 12529 ft | 347 kts | 161° |
| 2026-04-29 00:58 | -28.03413 | -64.26188 | 13558 ft | 349 kts | 161° |
| 2026-04-29 00:58 | -28.05682 | -64.25168 | 14472 ft | 351 kts | 161° |
| 2026-04-29 00:59 | -28.07954 | -64.24148 | 15446 ft | 350 kts | 161° |
| 2026-04-29 00:59 | -28.10221 | -64.23131 | 16434 ft | 350 kts | 161° |
| 2026-04-29 00:59 | -28.12493 | -64.22112 | 17365 ft | 352 kts | 161° |
| 2026-04-29 00:59 | -28.14778 | -64.21087 | 18287 ft | 353 kts | 161° |
| 2026-04-29 01:00 | -28.17068 | -64.20059 | 19076 ft | 354 kts | 161° |
| 2026-04-29 01:00 | -28.19364 | -64.19028 | 19880 ft | 355 kts | 161° |
| 2026-04-29 01:00 | -28.21664 | -64.17995 | 20698 ft | 356 kts | 161° |
| 2026-04-29 01:00 | -28.23969 | -64.16960 | 21505 ft | 356 kts | 161° |
| 2026-04-29 01:01 | -28.26270 | -64.15902 | 22281 ft | 358 kts | 158° |
| 2026-04-29 01:01 | -28.28492 | -64.14556 | 23019 ft | 362 kts | 153° |
| 2026-04-29 01:01 | -28.30658 | -64.13076 | 23741 ft | 364 kts | 152° |
| 2026-04-29 01:01 | -28.32816 | -64.11559 | 24334 ft | 366 kts | 152° |
| 2026-04-29 01:02 | -28.34994 | -64.10028 | 24896 ft | 369 kts | 152° |
| 2026-04-29 01:02 | -28.37191 | -64.08495 | 25451 ft | 372 kts | 152° |
| 2026-04-29 01:02 | -28.39405 | -64.06963 | 25984 ft | 374 kts | 152° |
| 2026-04-29 01:02 | -28.41643 | -64.05423 | 26526 ft | 377 kts | 152° |
| 2026-04-29 01:03 | -28.43899 | -64.03877 | 27061 ft | 379 kts | 153° |
| 2026-04-29 01:03 | -28.46168 | -64.02324 | 27572 ft | 382 kts | 153° |
| 2026-04-29 01:03 | -28.48451 | -64.00762 | 28072 ft | 385 kts | 153° |
| 2026-04-29 01:03 | -28.50754 | -63.99187 | 28561 ft | 388 kts | 153° |
| 2026-04-29 01:04 | -28.53075 | -63.97599 | 29023 ft | 391 kts | 153° |
| 2026-04-29 01:04 | -28.55413 | -63.95999 | 29499 ft | 393 kts | 153° |
| 2026-04-29 01:04 | -28.57761 | -63.94390 | 29956 ft | 395 kts | 153° |
| 2026-04-29 01:04 | -28.60129 | -63.92767 | 30346 ft | 398 kts | 153° |
| 2026-04-29 01:05 | -28.62507 | -63.91136 | 30723 ft | 400 kts | 153° |
| 2026-04-29 01:05 | -28.64894 | -63.89497 | 31157 ft | 400 kts | 153° |
| 2026-04-29 01:05 | -28.67236 | -63.87887 | 31707 ft | 396 kts | 153° |
| 2026-04-29 01:05 | -28.69582 | -63.86274 | 32305 ft | 392 kts | 153° |
| 2026-04-29 01:06 | -28.71912 | -63.84672 | 32849 ft | 389 kts | 153° |
| 2026-04-29 01:06 | -28.74226 | -63.83081 | 33332 ft | 387 kts | 153° |
| 2026-04-29 01:06 | -28.76531 | -63.81496 | 33818 ft | 385 kts | 153° |
| 2026-04-29 01:06 | -28.78818 | -63.79921 | 34280 ft | 383 kts | 153° |
| 2026-04-29 01:07 | -28.81112 | -63.78342 | 34497 ft | 387 kts | 153° |
| 2026-04-29 01:07 | -28.83423 | -63.76744 | 34657 ft | 391 kts | 153° |
| 2026-04-29 01:07 | -28.85760 | -63.75122 | 34918 ft | 392 kts | 153° |
| 2026-04-29 01:07 | -28.88090 | -63.73502 | 35190 ft | 393 kts | 152° |
| 2026-04-29 01:08 | -28.90437 | -63.71869 | 35398 ft | 396 kts | 152° |
| 2026-04-29 01:08 | -28.92799 | -63.70226 | 35605 ft | 399 kts | 152° |
| 2026-04-29 01:08 | -28.95173 | -63.68574 | 35854 ft | 400 kts | 152° |
| 2026-04-29 01:08 | -28.97558 | -63.66913 | 36075 ft | 402 kts | 152° |
| 2026-04-29 01:09 | -28.99955 | -63.65244 | 36275 ft | 405 kts | 152° |
| 2026-04-29 01:09 | -29.02366 | -63.63563 | 36502 ft | 407 kts | 152° |
| 2026-04-29 01:09 | -29.04788 | -63.61874 | 36723 ft | 409 kts | 152° |
| 2026-04-29 01:09 | -29.07221 | -63.60177 | 36924 ft | 411 kts | 152° |
| 2026-04-29 01:10 | -29.09667 | -63.58470 | 37140 ft | 412 kts | 152° |
| 2026-04-29 01:10 | -29.12123 | -63.56753 | 37331 ft | 415 kts | 152° |
| 2026-04-29 01:10 | -29.14590 | -63.55026 | 37537 ft | 416 kts | 152° |
| 2026-04-29 01:10 | -29.17066 | -63.53292 | 37773 ft | 417 kts | 152° |
| 2026-04-29 01:11 | -29.19547 | -63.51553 | 37995 ft | 419 kts | 151° |
| 2026-04-29 01:11 | -29.22040 | -63.49804 | 38190 ft | 421 kts | 151° |
| 2026-04-29 01:11 | -29.24542 | -63.48049 | 38404 ft | 422 kts | 151° |
| 2026-04-29 01:11 | -29.27048 | -63.46289 | 38650 ft | 422 kts | 151° |
| 2026-04-29 01:12 | -29.29520 | -63.44553 | 38829 ft | 424 kts | 151° |
| 2026-04-29 01:12 | -29.32037 | -63.42784 | 38994 ft | 425 kts | 151° |
| 2026-04-29 01:12 | -29.34568 | -63.41004 | 39028 ft | 426 kts | 151° |
| 2026-04-29 01:13 | -29.39616 | -63.37449 | 39038 ft | 424 kts | 151° |
| 2026-04-29 01:13 | -29.44635 | -63.33912 | 39037 ft | 422 kts | 151° |
| 2026-04-29 01:14 | -29.49629 | -63.30382 | 39037 ft | 421 kts | 151° |
| 2026-04-29 01:14 | -29.54601 | -63.26855 | 39038 ft | 419 kts | 151° |
| 2026-04-29 01:15 | -29.59552 | -63.23338 | 39033 ft | 418 kts | 151° |
| 2026-04-29 01:15 | -29.64489 | -63.19828 | 39036 ft | 416 kts | 151° |
| 2026-04-29 01:16 | -29.69406 | -63.16328 | 39034 ft | 415 kts | 151° |
| 2026-04-29 01:16 | -29.74309 | -63.12834 | 39028 ft | 414 kts | 151° |
| 2026-04-29 01:17 | -29.79198 | -63.09346 | 39028 ft | 412 kts | 151° |
| 2026-04-29 01:17 | -29.84073 | -63.05864 | 39026 ft | 411 kts | 152° |
| 2026-04-29 01:18 | -29.88958 | -63.02371 | 39027 ft | 409 kts | 152° |
| 2026-04-29 01:18 | -29.96170 | -62.97207 | 39024 ft | 407 kts | 152° |
| 2026-04-29 01:19 | -30.00988 | -62.93751 | 39039 ft | 406 kts | 152° |
| 2026-04-29 01:19 | -30.05778 | -62.90312 | 39028 ft | 405 kts | 152° |
| 2026-04-29 01:20 | -30.10553 | -62.86880 | 39024 ft | 403 kts | 152° |
| 2026-04-29 01:20 | -30.15313 | -62.83454 | 39020 ft | 402 kts | 152° |
| 2026-04-29 01:21 | -30.19288 | -62.80590 | 39022 ft | 402 kts | 151° |
| 2026-04-29 01:21 | -30.24863 | -62.76569 | 39023 ft | 401 kts | 151° |
| 2026-04-29 01:22 | -30.28821 | -62.73711 | 39023 ft | 400 kts | 151° |
| 2026-04-29 01:22 | -30.34316 | -62.69738 | 39025 ft | 400 kts | 151° |
| 2026-04-29 01:23 | -30.38296 | -62.66858 | 39020 ft | 399 kts | 151° |
| 2026-04-29 01:23 | -30.43000 | -62.63449 | 39018 ft | 398 kts | 151° |
| 2026-04-29 01:24 | -30.47694 | -62.60042 | 39018 ft | 398 kts | 151° |
| 2026-04-29 01:24 | -30.52383 | -62.56634 | 39020 ft | 397 kts | 151° |
| 2026-04-29 01:25 | -30.57066 | -62.53228 | 39019 ft | 396 kts | 151° |
| 2026-04-29 01:25 | -30.61734 | -62.49828 | 39018 ft | 396 kts | 151° |
| 2026-04-29 01:26 | -30.66389 | -62.46433 | 39013 ft | 395 kts | 151° |
| 2026-04-29 01:26 | -30.71205 | -62.42916 | 39012 ft | 395 kts | 151° |
| 2026-04-29 01:27 | -30.75827 | -62.39538 | 39016 ft | 394 kts | 151° |
| 2026-04-29 01:27 | -30.80522 | -62.36114 | 39011 ft | 394 kts | 151° |
| 2026-04-29 01:28 | -30.85186 | -62.32739 | 39016 ft | 395 kts | 151° |
| 2026-04-29 01:28 | -30.89851 | -62.29361 | 39013 ft | 395 kts | 151° |
| 2026-04-29 01:29 | -30.94518 | -62.25972 | 39013 ft | 395 kts | 151° |
| 2026-04-29 01:29 | -30.99160 | -62.22597 | 39014 ft | 396 kts | 151° |
| 2026-04-29 01:30 | -31.03770 | -62.19242 | 39016 ft | 396 kts | 151° |
| 2026-04-29 01:30 | -31.08482 | -62.15805 | 39013 ft | 396 kts | 151° |
| 2026-04-29 01:31 | -31.13168 | -62.12381 | 39013 ft | 397 kts | 151° |
| 2026-04-29 01:31 | -31.17857 | -62.08952 | 39013 ft | 397 kts | 151° |
| 2026-04-29 01:32 | -31.22544 | -62.05504 | 39010 ft | 398 kts | 150° |
| 2026-04-29 01:32 | -31.27257 | -62.01998 | 39015 ft | 399 kts | 150° |
| 2026-04-29 01:33 | -31.31936 | -61.98512 | 39013 ft | 399 kts | 150° |
| 2026-04-29 01:33 | -31.36628 | -61.95013 | 39014 ft | 400 kts | 150° |
| 2026-04-29 01:34 | -31.41293 | -61.91533 | 39014 ft | 400 kts | 150° |
| 2026-04-29 01:34 | -31.45993 | -61.88022 | 39011 ft | 401 kts | 150° |
| 2026-04-29 01:35 | -31.50709 | -61.84496 | 39012 ft | 401 kts | 150° |
| 2026-04-29 01:35 | -31.55426 | -61.80964 | 39013 ft | 402 kts | 150° |
| 2026-04-29 01:36 | -31.60170 | -61.77408 | 39011 ft | 402 kts | 150° |
| 2026-04-29 01:36 | -31.64935 | -61.73831 | 39012 ft | 403 kts | 150° |
| 2026-04-29 01:37 | -31.69660 | -61.70281 | 39012 ft | 403 kts | 150° |
| 2026-04-29 01:37 | -31.74362 | -61.66742 | 39012 ft | 404 kts | 150° |
| 2026-04-29 01:38 | -31.79132 | -61.63149 | 39013 ft | 404 kts | 150° |
| 2026-04-29 01:38 | -31.83861 | -61.59586 | 39009 ft | 404 kts | 150° |
| 2026-04-29 01:39 | -31.88607 | -61.56008 | 39007 ft | 404 kts | 151° |
| 2026-04-29 01:39 | -31.92579 | -61.53013 | 39011 ft | 405 kts | 150° |
| 2026-04-29 01:40 | -31.97316 | -61.49421 | 39008 ft | 405 kts | 150° |
| 2026-04-29 01:40 | -32.02098 | -61.45804 | 38995 ft | 406 kts | 150° |
| 2026-04-29 01:41 | -32.06853 | -61.42205 | 39004 ft | 405 kts | 151° |
| 2026-04-29 01:41 | -32.11599 | -61.38608 | 39007 ft | 405 kts | 151° |
| 2026-04-29 01:42 | -32.16310 | -61.35032 | 39005 ft | 406 kts | 151° |
| 2026-04-29 01:42 | -32.21096 | -61.31393 | 39002 ft | 406 kts | 151° |
| 2026-04-29 01:43 | -32.25841 | -61.27782 | 39003 ft | 406 kts | 151° |
| 2026-04-29 01:43 | -32.30601 | -61.24154 | 38999 ft | 407 kts | 151° |
| 2026-04-29 01:44 | -32.35365 | -61.20519 | 39000 ft | 407 kts | 151° |
| 2026-04-29 01:44 | -32.40138 | -61.16879 | 39002 ft | 408 kts | 152° |
| 2026-04-29 01:45 | -32.44750 | -61.12904 | 39014 ft | 411 kts | 147° |
| 2026-04-29 01:45 | -32.49253 | -61.08656 | 39004 ft | 412 kts | 146° |
| 2026-04-29 01:46 | -32.53744 | -61.04416 | 38999 ft | 412 kts | 147° |
| 2026-04-29 01:46 | -32.58292 | -61.00166 | 38998 ft | 412 kts | 147° |
| 2026-04-29 01:47 | -32.63012 | -60.95772 | 38992 ft | 412 kts | 147° |
| 2026-04-29 01:47 | -32.67228 | -60.91848 | 38982 ft | 412 kts | 147° |
| 2026-04-29 01:48 | -32.71748 | -60.87637 | 38976 ft | 413 kts | 147° |
| 2026-04-29 01:48 | -32.76266 | -60.83421 | 38973 ft | 413 kts | 147° |
| 2026-04-29 01:49 | -32.80787 | -60.79198 | 38971 ft | 413 kts | 147° |
| 2026-04-29 01:49 | -32.85304 | -60.74972 | 38968 ft | 413 kts | 147° |
| 2026-04-29 01:50 | -32.89885 | -60.70680 | 38970 ft | 413 kts | 147° |
| 2026-04-29 01:50 | -32.94406 | -60.66438 | 38969 ft | 413 kts | 147° |
| 2026-04-29 01:51 | -32.98921 | -60.62197 | 38971 ft | 413 kts | 148° |
| 2026-04-29 01:51 | -33.03440 | -60.57946 | 38978 ft | 413 kts | 148° |
| 2026-04-29 01:52 | -33.07958 | -60.53691 | 38982 ft | 413 kts | 148° |
| 2026-04-29 01:52 | -33.11715 | -60.50148 | 38985 ft | 413 kts | 148° |
| 2026-04-29 01:53 | -33.16251 | -60.45866 | 38988 ft | 414 kts | 148° |
| 2026-04-29 01:53 | -33.20861 | -60.41507 | 38991 ft | 414 kts | 148° |
| 2026-04-29 01:54 | -33.25384 | -60.37225 | 38985 ft | 414 kts | 148° |
| 2026-04-29 01:54 | -33.29781 | -60.32813 | 38970 ft | 421 kts | 140° |
| 2026-04-29 01:55 | -33.33794 | -60.27555 | 38987 ft | 422 kts | 139° |
| 2026-04-29 01:55 | -33.37744 | -60.22274 | 38985 ft | 423 kts | 139° |
| 2026-04-29 01:56 | -33.41680 | -60.17047 | 38986 ft | 423 kts | 139° |
| 2026-04-29 01:56 | -33.45638 | -60.11814 | 38981 ft | 423 kts | 139° |
| 2026-04-29 01:57 | -33.49598 | -60.06585 | 38984 ft | 424 kts | 139° |
| 2026-04-29 01:57 | -33.53590 | -60.01308 | 38981 ft | 425 kts | 139° |
| 2026-04-29 01:58 | -33.57583 | -59.96012 | 38982 ft | 425 kts | 139° |
| 2026-04-29 01:58 | -33.61527 | -59.90765 | 38976 ft | 426 kts | 139° |
| 2026-04-29 01:59 | -33.65567 | -59.85400 | 38524 ft | 433 kts | 139° |
| 2026-04-29 01:59 | -33.67586 | -59.82718 | 37922 ft | 432 kts | 139° |
| 2026-04-29 01:59 | -33.69594 | -59.80045 | 37296 ft | 429 kts | 138° |
| 2026-04-29 02:00 | -33.71592 | -59.77382 | 36619 ft | 428 kts | 138° |
| 2026-04-29 02:00 | -33.73614 | -59.74686 | 35964 ft | 427 kts | 138° |
| 2026-04-29 02:00 | -33.75606 | -59.72029 | 35222 ft | 429 kts | 138° |
| 2026-04-29 02:00 | -33.77608 | -59.69359 | 34480 ft | 431 kts | 137° |
| 2026-04-29 02:01 | -33.79605 | -59.66691 | 33947 ft | 427 kts | 137° |
| 2026-04-29 02:01 | -33.81591 | -59.64035 | 33309 ft | 425 kts | 137° |
| 2026-04-29 02:01 | -33.83607 | -59.61336 | 32744 ft | 421 kts | 137° |
| 2026-04-29 02:01 | -33.85554 | -59.58727 | 32213 ft | 417 kts | 136° |
| 2026-04-29 02:02 | -33.87489 | -59.56134 | 31684 ft | 414 kts | 136° |
| 2026-04-29 02:02 | -33.89432 | -59.53529 | 31164 ft | 411 kts | 136° |
| 2026-04-29 02:02 | -33.91391 | -59.50902 | 30644 ft | 409 kts | 135° |
| 2026-04-29 02:02 | -33.93332 | -59.48296 | 30127 ft | 406 kts | 135° |
| 2026-04-29 02:03 | -33.94558 | -59.46651 | 29764 ft | 405 kts | 135° |
| 2026-04-29 02:03 | -33.96513 | -59.44021 | 29147 ft | 403 kts | 135° |
| 2026-04-29 02:03 | -33.98380 | -59.41510 | 28580 ft | 401 kts | 135° |
| 2026-04-29 02:03 | -34.00214 | -59.39041 | 28057 ft | 398 kts | 135° |
| 2026-04-29 02:04 | -34.02080 | -59.36526 | 27513 ft | 396 kts | 135° |
| 2026-04-29 02:04 | -34.03910 | -59.34058 | 26981 ft | 394 kts | 135° |
| 2026-04-29 02:04 | -34.05729 | -59.31605 | 26456 ft | 392 kts | 136° |
| 2026-04-29 02:04 | -34.07544 | -59.29155 | 25930 ft | 391 kts | 136° |
| 2026-04-29 02:05 | -34.09353 | -59.26712 | 25378 ft | 390 kts | 136° |
| 2026-04-29 02:05 | -34.11142 | -59.24294 | 24842 ft | 390 kts | 136° |
| 2026-04-29 02:05 | -34.12951 | -59.21848 | 24302 ft | 390 kts | 136° |
| 2026-04-29 02:05 | -34.14760 | -59.19399 | 23757 ft | 391 kts | 136° |
| 2026-04-29 02:06 | -34.16571 | -59.16947 | 23146 ft | 392 kts | 136° |
| 2026-04-29 02:06 | -34.18383 | -59.14491 | 22568 ft | 390 kts | 136° |
| 2026-04-29 02:06 | -34.20185 | -59.12046 | 22002 ft | 389 kts | 136° |
| 2026-04-29 02:06 | -34.22001 | -59.09579 | 21462 ft | 387 kts | 136° |
| 2026-04-29 02:07 | -34.23789 | -59.07149 | 20905 ft | 386 kts | 136° |
| 2026-04-29 02:07 | -34.25569 | -59.04730 | 20363 ft | 385 kts | 136° |
| 2026-04-29 02:07 | -34.27311 | -59.02361 | 19812 ft | 384 kts | 136° |
| 2026-04-29 02:07 | -34.29077 | -58.99957 | 19267 ft | 383 kts | 136° |
| 2026-04-29 02:08 | -34.30853 | -58.97537 | 18714 ft | 383 kts | 135° |
| 2026-04-29 02:08 | -34.32617 | -58.95132 | 18143 ft | 383 kts | 135° |
| 2026-04-29 02:08 | -34.34381 | -58.92727 | 17522 ft | 382 kts | 135° |
| 2026-04-29 02:08 | -34.36151 | -58.90310 | 16968 ft | 379 kts | 135° |
| 2026-04-29 02:09 | -34.36968 | -58.89193 | 16699 ft | 378 kts | 135° |
| 2026-04-29 02:09 | -34.38760 | -58.86745 | 16118 ft | 376 kts | 135° |
| 2026-04-29 02:09 | -34.40513 | -58.84347 | 15548 ft | 374 kts | 135° |
| 2026-04-29 02:09 | -34.42193 | -58.82048 | 15012 ft | 372 kts | 135° |
| 2026-04-29 02:10 | -34.43893 | -58.79720 | 14465 ft | 370 kts | 135° |
| 2026-04-29 02:10 | -34.45726 | -58.77211 | 13874 ft | 369 kts | 135° |
| 2026-04-29 02:10 | -34.47362 | -58.74968 | 13283 ft | 367 kts | 135° |
| 2026-04-29 02:10 | -34.49071 | -58.72623 | 12701 ft | 364 kts | 135° |
| 2026-04-29 02:11 | -34.50721 | -58.70356 | 12143 ft | 361 kts | 135° |
| 2026-04-29 02:11 | -34.52415 | -58.68028 | 11585 ft | 358 kts | 135° |
| 2026-04-29 02:11 | -34.54099 | -58.65712 | 11023 ft | 355 kts | 135° |
| 2026-04-29 02:11 | -34.55703 | -58.63506 | 10469 ft | 353 kts | 135° |
| 2026-04-29 02:12 | -34.57234 | -58.61397 | 10222 ft | 342 kts | 135° |
| 2026-04-29 02:12 | -34.58825 | -58.59202 | 10012 ft | 330 kts | 135° |
| 2026-04-29 02:12 | -34.60301 | -58.57163 | 9864 ft | 311 kts | 135° |
| 2026-04-29 02:12 | -34.61696 | -58.55235 | 9573 ft | 303 kts | 135° |
| 2026-04-29 02:13 | -34.63174 | -58.53202 | 8955 ft | 310 kts | 135° |
| 2026-04-29 02:13 | -34.64564 | -58.51288 | 8472 ft | 311 kts | 135° |
| 2026-04-29 02:13 | -34.65994 | -58.49316 | 8026 ft | 310 kts | 135° |
| 2026-04-29 02:13 | -34.67440 | -58.47320 | 7403 ft | 315 kts | 134° |
| 2026-04-29 02:14 | -34.68900 | -58.45303 | 6843 ft | 319 kts | 134° |
| 2026-04-29 02:14 | -34.70385 | -58.43248 | 6341 ft | 319 kts | 134° |
| 2026-04-29 02:14 | -34.71351 | -58.41909 | 5991 ft | 319 kts | 134° |
| 2026-04-29 02:14 | -34.73342 | -58.39151 | 5399 ft | 314 kts | 134° |
| 2026-04-29 02:15 | -34.74415 | -58.37663 | 5117 ft | 311 kts | 134° |
| 2026-04-29 02:15 | -34.75805 | -58.35953 | 4729 ft | 288 kts | 148° |
| 2026-04-29 02:15 | -34.77576 | -58.35110 | 4160 ft | 260 kts | 176° |
| 2026-04-29 02:15 | -34.79237 | -58.35019 | 3902 ft | 231 kts | 187° |
| 2026-04-29 02:16 | -34.80824 | -58.35332 | 3268 ft | 221 kts | 206° |
| 2026-04-29 02:16 | -34.82143 | -58.36254 | 2779 ft | 201 kts | 228° |
| 2026-04-29 02:16 | -34.82986 | -58.37452 | 2397 ft | 185 kts | 243° |
| 2026-04-29 02:16 | -34.83628 | -58.38789 | 1940 ft | 179 kts | 250° |
| 2026-04-29 02:17 | -34.84188 | -58.40126 | 1557 ft | 169 kts | 253° |
| 2026-04-29 02:17 | -34.84408 | -58.41360 | 1449 ft | 138 kts | 279° |
| 2026-04-29 02:17 | -34.84301 | -58.42461 | 1258 ft | 127 kts | 285° |
| 2026-04-29 02:17 | -34.84140 | -58.43453 | 1365 ft | 117 kts | 288° |
| 2026-04-29 02:18 | -34.83913 | -58.44382 | 1404 ft | 113 kts | 295° |
| 2026-04-29 02:18 | -34.83696 | -58.45343 | 1128 ft | 121 kts | 287° |
| 2026-04-29 02:18 | -34.83559 | -58.46362 | 902 ft | 119 kts | 284° |
| 2026-04-29 02:18 | -34.83371 | -58.47369 | 795 ft | 125 kts | 288° |
| 2026-04-29 02:19 | -34.83151 | -58.48412 | 719 ft | 129 kts | 285° |
| 2026-04-29 02:19 | -34.82980 | -58.49501 | 510 ft | 130 kts | 285° |
| 2026-04-29 02:19 | -34.82769 | -58.50556 | 330 ft | 131 kts | 289° |
| 2026-04-29 02:19 | -34.82565 | -58.51649 | 151 ft | 131 kts | 285° |
| 2026-04-29 02:20 | -34.82377 | -58.52683 | 81 ft | 109 kts | 282° |
| 2026-04-29 02:20 | -34.82244 | -58.53431 | 81 ft | 66 kts | 283° |
| 2026-04-29 02:20 | -34.82180 | -58.53821 | 81 ft | 23 kts | 281° |
| 2026-04-29 02:20 | -34.82134 | -58.53884 | 83 ft | 10 kts | 8° |
| 2026-04-29 02:21 | -34.82081 | -58.53846 | 75 ft | 11 kts | 41° |
| 2026-04-29 02:21 | -34.82025 | -58.53780 | 74 ft | 11 kts | 44° |
| 2026-04-29 02:21 | -34.81969 | -58.53711 | 70 ft | 11 kts | 46° |
| 2026-04-29 02:21 | -34.81930 | -58.53662 | 71 ft | 11 kts | 43° |
| 2026-04-29 02:22 | -34.81839 | -58.53665 | 71 ft | 11 kts | 333° |
| 2026-04-29 02:22 | -34.81780 | -58.53703 | 69 ft | 12 kts | 334° |
| 2026-04-29 02:22 | -34.81701 | -58.53748 | 70 ft | 12 kts | 334° |
| 2026-04-29 02:22 | -34.81624 | -58.53759 | 72 ft | 13 kts | 30° |
| 2026-04-29 02:23 | -34.81557 | -58.53688 | 70 ft | 12 kts | 40° |
| 2026-04-29 02:23 | -34.81484 | -58.53637 | 74 ft | 12 kts | 22° |
| 2026-04-29 02:23 | -34.81399 | -58.53599 | 74 ft | 12 kts | 16° |
| 2026-04-29 02:23 | -34.81319 | -58.53591 | 71 ft | 12 kts | 6° |
| 2026-04-29 02:24 | -34.81254 | -58.53589 | 69 ft | 11 kts | 359° |
| 2026-04-29 02:24 | -34.81155 | -58.53570 | 73 ft | 9 kts | 26° |
| 2026-04-29 02:24 | -34.81104 | -58.53552 | 75 ft | 7 kts | 356° |
| 2026-04-29 02:25 | -34.81079 | -58.53620 | 75 ft | 6 kts | 246° |
| 2026-04-29 02:25 | -34.81089 | -58.53655 | 74 ft | 0 kts | 254° |